Weather observations for the past three days for
Aurora, Aurora Municipal Airport
Imperial (Metric)
Date Time (cdt) Wind (mph) Vis. (mi.) Weather Sky Cond. Temperature (ºF) Relative Humidity Wind Chill (°F) Heat Index (°F) Pressure Precipitation (in)
Air Dwpt 6 hour altimeter (in) sea level (mb) 1 hr 3 hr 6 hr
Max. Min.
06 01:15 N 5 10.00 Fair CLR 45 26.6 49% 43 30.01 0.0
06 00:55 N 6 10.00 Partly Cloudy SCT120 45.5 26.8 55.4 45.5 48% 43 30.01 0.0
06 00:35 N 5 10.00 Mostly Cloudy BKN120 45.9 26.4 47% 44 30.01 0.0
06 00:15 N 6 10.00 Mostly Cloudy BKN120 46.4 26.6 46% 44 30 0.0
05 23:55 N 6 10.00 Mostly Cloudy BKN120 47.3 25.7 43% 45 30 0.0
05 23:35 N 6 10.00 Mostly Cloudy BKN120 47.7 24.8 41% 45 30 0.0
05 23:15 N 6 10.00 Mostly Cloudy BKN120 48.2 24.8 40% 46 30 0.0
05 22:55 N 7 10.00 Mostly Cloudy BKN110 48.7 24.8 39% 46 30 0.0
05 22:35 N 6 10.00 Overcast OVC120 48.6 25.5 41% 47 29.99 0.0
05 22:15 N 6 10.00 Mostly Cloudy BKN120 49.5 24.8 38% 48 29.99 0.0
05 21:55 N 6 10.00 Overcast OVC120 49.6 25 38% 48 29.97 0.0
05 21:35 NE 6 10.00 Mostly Cloudy BKN120 50.2 24.6 37% 29.97 0.0
05 21:15 N 6 10.00 Mostly Cloudy BKN120 50.9 23.9 35% 29.96 0.0
05 20:55 N 8 10.00 Overcast OVC110 51.3 24.4 35% 29.95 0.0
05 20:35 N 9 10.00 Overcast OVC110 52.2 23.5 33% 29.94 0.0
05 20:15 N 9 10.00 Overcast OVC100 52.7 23.9 33% 29.93 0.0
05 19:55 N 13 10.00 Overcast OVC100 53.6 23.7 31% 29.93 0.0
05 19:35 N 14 10.00 Overcast OVC100 54.1 23 30% 29.92 0.0
05 19:15 N 14 10.00 Mostly Cloudy BKN110 54.7 23.9 30% 29.92 0.0
05 18:55 N 14 10.00 Partly Cloudy SCT110 55.4 24.6 57.2 52.9 30% 29.91 0.0
05 18:35 N 10 10.00 Overcast SCT070 OVC110 56.1 26.1 31% 29.91 0.0
05 18:15 N 13 10.00 Mostly Cloudy BKN110 56.3 25.7 31% 29.91 0.0
05 17:55 N 12 10.00 Mostly Cloudy SCT070 SCT080 BKN110 56.5 26.1 31% 29.91 0.0
05 17:35 N 14 10.00 Mostly Cloudy SCT070 BKN080 57 26.2 31% 29.9 0.0
05 17:15 N 7 10.00 Overcast BKN070 OVC080 56.3 27.1 33% 29.91 0.0
05 16:55 NW 7 10.00 Overcast OVC070 55.8 27.5 34% 29.91 0.0
05 16:35 NW 10 G 16 10.00 Mostly Cloudy SCT070 BKN085 55.9 28.4 35% 29.92 0.0
05 16:15 NW 10 10.00 Mostly Cloudy SCT070 BKN085 56.5 29.5 36% 29.92 0.0
05 15:55 N 6 G 10 10.00 Overcast OVC070 55.4 29.5 37% 29.93 0.0
05 15:35 NW 10 10.00 Overcast SCT055 OVC075 55.8 29.7 37% 29.94 0.0
05 15:15 N 9 G 17 10.00 Overcast SCT055 OVC065 55.8 29.3 36% 29.94 0.0
05 14:55 N 12 10.00 Mostly Cloudy BKN065 BKN070 55.6 29.8 37% 29.95 0.0
05 14:35 NW 7 10.00 Overcast SCT055 OVC065 55.6 29.3 37% 29.95 0.0
05 14:15 NW 14 10.00 Mostly Cloudy BKN065 55.9 28.6 35% 29.96 0.0
05 13:55 NW 9 G 16 10.00 Partly Cloudy SCT060 SCT070 55.9 29.5 36% 29.95 0.0
05 13:35 N 7 G 16 10.00 Partly Cloudy SCT046 54.9 31.5 41% 29.96 0.0
05 13:15 N 8 10.00 Fair CLR 54 32.7 45% 29.97 0.0
05 12:55 N 3 10.00 Partly Cloudy SCT080 51.8 32.2 52.2 47.5 47% 29.97 0.0
05 12:35 N 7 10.00 Overcast SCT060 BKN070 OVC080 50.5 33.4 52% 29.98 0.0
05 12:15 N 9 G 16 10.00 Mostly Cloudy SCT042 SCT048 BKN060 50.4 34.3 54% 29.99 0.0
05 11:55 NW 13 10.00 Overcast OVC050 50 34.2 55% 46 29.99 0.0
05 11:35 N 12 G 17 10.00 Light Drizzle OVC050 48.6 34.7 59% 44 29.99 0.0
05 11:15 N 14 G 20 10.00 Light Rain SCT039 BKN050 OVC060 50.5 31.5 48% 29.98 0.0
05 10:55 N 16 G 21 10.00 Overcast SCT050 OVC060 50.9 31.5 47% 29.98 0.0
05 10:35 N 13 10.00 Overcast OVC070 51.1 30.4 45% 29.97 0.0
05 10:15 NE 12 10.00 Overcast BKN070 OVC095 50.9 28.2 42% 29.96 0.0
05 09:55 N 12 10.00 Overcast SCT070 OVC095 51.1 29.3 43% 29.96 0.0
05 09:35 NE 10 10.00 Overcast SCT070 OVC095 50.9 29.8 44% 29.95 0.0
05 09:15 NE 8 10.00 Overcast SCT065 OVC095 50 32.2 51% 47 29.94 0.0
05 08:55 NE 7 10.00 Overcast BKN060 BKN075 OVC095 49.1 34.2 57% 47 29.93 0.0
05 08:15 NE 5 10.00 Overcast OVC095 48.2 39 71% 47 29.93 0.0
05 07:55 NE 3 10.00 Overcast OVC095 48 40.3 75% 29.92 0.0
05 07:35 NE 3 10.00 Overcast OVC095 47.7 39.7 74% 29.91 0.0
05 07:15 NE 6 10.00 Overcast OVC095 47.5 40.3 76% 45 29.9 0.0
05 06:55 NE 7 10.00 Overcast OVC095 47.5 40.3 50 47.5 76% 45 29.89 0.0
05 06:35 NE 8 10.00 Overcast OVC095 47.5 39.2 73% 44 29.88 0.0
05 06:15 NE 10 10.00 Overcast OVC095 48.2 38.7 70% 44 29.86 0.0
05 05:55 N 9 10.00 Overcast OVC095 48.6 40.1 73% 45 29.86 0.0
05 05:35 N 10 10.00 Overcast SCT080 OVC095 49.3 39.6 69% 45 29.84 0.0
05 04:55 N 6 10.00 Overcast SCT070 BKN090 OVC110 49.5 43.9 81% 48 29.84 0.0
05 04:35 N 3 10.00 Overcast SCT080 OVC090 49.6 44.1 81% 29.84 0.0
05 04:15 Calm 10.00 Overcast OVC090 49.6 44.6 83% 29.84 0.0
05 03:55 Calm 10.00 Overcast OVC090 49.6 41.9 75% 29.84 0.0
05 03:35 Calm 10.00 Overcast OVC090 49.5 42.8 78% 29.85 0.0
05 03:15 Calm 10.00 Overcast OVC100 48.2 44.2 86% 29.84 0.0
05 02:55 Calm 10.00 Overcast OVC100 49.5 44.1 82% 29.84 0.0
05 02:35 Calm 10.00 Overcast OVC100 49.1 44.4 84% 29.83 0.0
05 02:15 Calm 10.00 Overcast OVC100 49.3 44.4 83% 29.84 0.0
05 01:55 Calm 10.00 Overcast OVC090 49.3 44.4 83% 29.84 0.0
05 01:35 Calm 10.00 Light Drizzle SCT065 OVC080 49.5 43.7 81% 29.84 0.0
05 01:15 Calm 10.00 Light Drizzle SCT065 OVC080 49.6 43.2 79% 29.84 0.0
05 00:55 Calm 10.00 Overcast OVC080 49.6 43.3 69.8 49.3 79% 29.83 0.0
05 00:35 NE 3 10.00 Overcast BKN090 OVC120 49.5 42.8 78% 29.82 0.0
05 00:15 NE 9 10.00 Overcast OVC090 50 42.3 75% 47 29.81 0.0
04 23:55 NE 8 10.00 Light Rain SCT080 OVC100 50.4 40.8 70% 29.82 0.0
04 23:35 NE 13 10.00 Light Rain OVC100 52.9 36 53% 29.82 0.0
04 23:15 NE 16 10.00 Overcast OVC100 53.6 34.7 49% 29.82 0.0
04 22:55 N 16 10.00 Overcast OVC110 54.5 33.1 44% 29.86 0.0
04 22:35 N 18 G 23 10.00 Overcast OVC110 56.3 31.6 39% 29.84 0.0
04 22:15 N 18 G 24 10.00 Mostly Cloudy BKN110 56.5 31.6 39% 29.82 0.0
04 21:55 N 21 10.00 Mostly Cloudy and Breezy BKN120 57.2 32 39% 29.8 0.0
04 21:35 N 22 10.00 Partly Cloudy and Breezy SCT120 57.7 32 38% 29.79 0.0
04 21:15 N 20 G 25 10.00 Partly Cloudy SCT120 58.3 32.2 37% 29.78 0.0
04 20:55 N 22 G 29 10.00 Partly Cloudy and Breezy SCT120 58.8 33.1 38% 29.76 0.0
04 20:35 N 23 G 32 10.00 Fair and Breezy CLR 59.4 33.1 37% 29.75 0.0
04 20:15 N 28 G 35 10.00 Fair and Windy CLR 62.1 32.5 33% 29.73 0.0
04 19:55 N 26 G 32 10.00 Partly Cloudy and Windy SCT120 63.1 31.8 31% 29.72 0.0
04 19:15 N 25 G 29 10.00 Fair and Breezy CLR 68 31.1 25% 29.7 0.0
04 18:55 N 18 G 28 10.00 Fair CLR 69.8 31.8 79.5 69.3 25% 29.7 0.0
04 18:35 N 22 G 30 10.00 Fair and Breezy CLR 69.8 32 25% 29.7 0.0
04 18:15 N 20 G 25 10.00 Fair CLR 70.9 33.3 25% 29.7 0.0
04 17:55 N 18 G 22 10.00 Fair CLR 71.4 33.1 24% 29.7 0.0
04 17:35 N 20 G 26 10.00 Fair CLR 72.7 33.3 24% 29.69 0.0
04 17:15 N 23 G 31 10.00 Fair and Breezy CLR 72.5 32.7 23% 29.68 0.0
04 16:55 N 20 G 24 10.00 Fair CLR 73.8 32.2 22% 29.69 0.0
04 16:35 N 20 G 24 10.00 Fair CLR 74.7 32.2 21% 29.68 0.0
04 16:15 N 15 G 29 10.00 Fair CLR 73.8 31.8 21% 29.67 0.0
04 15:55 N 21 G 26 10.00 Fair and Breezy CLR 75.4 33.1 21% 76 29.65 0.0
04 15:35 NE 20 G 28 10.00 Fair CLR 76.3 34.3 22% 77 29.66 0.0
04 15:15 NE 14 G 24 10.00 Fair CLR 75.9 36.7 24% 77 29.65 0.0
04 14:55 N 20 G 25 10.00 Fair CLR 76.1 38.3 26% 77 29.66 0.0
04 14:35 N 22 G 26 10.00 Fair and Breezy CLR 75.9 39.2 27% 77 29.66 0.0
04 13:55 N 17 G 25 10.00 Fair CLR 77.7 40.3 26% 78 29.65 0.0
04 13:35 N 18 G 25 10.00 Fair CLR 78.4 38.7 24% 78 29.64 0.0
04 13:15 N 16 G 26 10.00 Fair CLR 79 38.3 23% 78 29.64 0.0
04 12:55 N 16 G 26 10.00 Fair CLR 79.7 37.6 80.8 48.4 22% 79 29.64 0.0
04 12:35 N 18 G 23 10.00 Fair CLR 80.4 36.3 20% 79 29.64 0.0
04 12:15 NW 16 G 21 10.00 Fair CLR 80.1 30 16% 78 29.63 0.0
04 11:35 NW 12 G 17 10.00 Fair CLR 78.4 36.3 22% 78 29.64 0.0
04 11:15 NW 13 G 20 10.00 Fair CLR 77.4 36.1 23% 77 29.65 0.0
04 10:55 NW 14 G 18 10.00 Fair CLR 75.7 37.6 25% 77 29.64 0.0
04 10:35 W 14 10.00 Fair CLR 74.5 38.1 27% 29.65 0.0
04 10:15 W 14 G 18 10.00 Fair CLR 72.5 38.5 29% 29.65 0.0
04 09:55 W 13 10.00 Fair CLR 70.5 38.3 31% 29.66 0.0
04 09:35 W 14 10.00 Fair CLR 68.4 38.3 33% 29.66 0.0
04 09:15 W 12 10.00 Fair CLR 65.8 38.5 37% 29.66 0.0
04 08:55 W 13 10.00 Fair CLR 63.3 38.3 40% 29.66 0.0
04 08:35 W 8 10.00 Fair CLR 61.3 38.5 43% 29.66 0.0
04 08:15 NW 9 10.00 Fair CLR 57.9 38.5 49% 29.66 0.0
04 07:55 NW 10 10.00 Fair CLR 56.3 38.8 52% 29.66 0.0
04 07:35 NW 9 10.00 Fair CLR 53.8 38.5 56% 29.65 0.0
04 07:15 NW 7 10.00 Fair CLR 51.1 38.3 62% 29.65 0.0
04 06:55 NW 6 10.00 Fair CLR 48.2 36.9 57.2 46.8 65% 46 29.64 0.0
04 06:35 W 6 10.00 Fair CLR 47.3 36.7 67% 45 29.63 0.0
04 06:15 W 5 10.00 Fair CLR 47.1 36.5 67% 46 29.63 0.0
04 05:55 W 7 10.00 Fair CLR 46.9 35.6 65% 44 29.63 0.0
04 05:35 W 7 10.00 Fair CLR 46.9 35.1 63% 44 29.63 0.0
04 05:15 W 3 10.00 Fair CLR 47.7 35.2 62% 29.63 0.0
04 04:55 Calm 10.00 Fair CLR 51.3 35.4 55% 29.64 0.0
04 04:35 S 7 10.00 Fair CLR 55.6 35.6 47% 29.64 0.0
04 04:15 S 6 10.00 Fair CLR 56.5 35.4 45% 29.64 0.0
04 03:55 S 5 10.00 Fair CLR 56.3 35.4 46% 29.65 0.0
04 03:35 S 5 10.00 Fair CLR 56.7 35.4 45% 29.66 0.0
04 03:15 S 7 10.00 Fair CLR 57 35.2 44% 29.67 0.0
04 02:55 S 7 10.00 Fair CLR 54.5 36.1 50% 29.66 0.0
04 02:35 S 8 10.00 Fair CLR 55.6 36.3 49% 29.67 0.0
04 02:15 S 7 10.00 Fair CLR 55.4 35.6 47% 29.68 0.0
04 01:55 S 7 10.00 Fair CLR 55.9 34.7 45% 29.7 0.0
04 01:35 S 6 10.00 Fair CLR 56.7 34.3 43% 29.71 0.0
04 01:15 S 7 10.00 Fair CLR 55.2 34.7 46% 29.72 0.0
04 00:55 S 7 10.00 Fair CLR 56.8 34.2 73.4 53.8 43% 29.72 0.0
04 00:35 SE 5 10.00 Fair CLR 57.2 34.5 43% 29.73 0.0
04 00:15 S 5 10.00 Fair CLR 58.8 34.3 40% 29.74 0.0
03 23:55 SE 5 10.00 Fair CLR 55.2 36 48% 29.75 0.0
03 23:35 SE 5 10.00 Fair CLR 55.6 36.3 49% 29.75 0.0
03 23:15 SE 5 10.00 Fair CLR 57 36.1 46% 29.75 0.0
03 22:55 SE 7 10.00 Fair CLR 59.9 35.8 41% 29.76 0.0
03 22:35 SE 7 10.00 Fair CLR 59.7 36.7 42% 29.77 0.0
03 22:15 SE 7 10.00 Fair CLR 61 35.2 38% 29.77 0.0
03 21:55 SE 5 10.00 Fair CLR 62.8 35.8 37% 29.78 0.0
03 21:35 SE 5 10.00 Fair CLR 62.4 36.9 39% 29.77 0.0
03 21:15 E 5 10.00 Fair CLR 62.6 37.6 40% 29.78 0.0
03 20:55 NE 5 10.00 Fair CLR 66.4 36.3 33% 29.78 0.0
03 20:35 Calm 10.00 Fair CLR 67.5 37.4 33% 29.78 0.0
03 20:15 N 6 10.00 Fair CLR 69.3 36.9 31% 29.78 0.0
03 19:55 NE 5 10.00 Fair CLR 71.6 35.6 27% 29.79 0.0
03 19:35 NE 3 10.00 Fair CLR 72.1 34.5 25% 29.79 0.0
03 19:15 N 5 10.00 Fair CLR 72.7 34.2 24% 29.8 0.0
03 18:55 NE 5 10.00 Fair CLR 73.6 32.4 75.4 72.3 22% 29.81 0.0
03 18:35 NE 6 10.00 Fair CLR 73.9 34 23% 29.81 0.0
03 18:15 NE 5 10.00 Fair CLR 74.1 32.4 22% 29.82 0.0
03 17:35 Calm 10.00 Fair CLR 73.6 32.4 22% 29.82 0.0
03 17:15 Calm 10.00 Fair CLR 73.4 33.1 23% 29.82 0.0
03 16:55 E 6 10.00 Fair CLR 74.5 34.3 23% 29.83 0.0
03 16:35 Calm 10.00 Fair CLR 74.1 33.6 23% 29.83 0.0
03 16:15 NW 3 10.00 Fair CLR 73.4 32.4 22% 29.84 0.0
03 15:55 N 8 10.00 Fair CLR 73.9 33.3 23% 29.85 0.0
03 15:35 N 9 10.00 Fair CLR 73.9 33.6 23% 29.86 0.0
03 15:15 NE 7 10.00 Fair CLR 75.2 33.6 22% 76 29.87 0.0
03 14:55 E 5 10.00 Fair CLR 73.8 32.9 22% 29.87 0.0
03 14:35 N 12 10.00 Fair CLR 74.7 34.3 23% 29.88 0.0
03 14:15 N 10 G 17 10.00 Fair CLR 73.6 34.7 24% 29.88 0.0
03 13:55 N 8 G 18 10.00 Fair CLR 73.6 34.9 24% 29.89 0.0
03 13:35 N 7 10.00 Fair CLR 72.7 33.3 24% 29.9 0.0
03 13:15 N 14 G 18 10.00 Fair CLR 73 33.3 23% 29.9 0.0
03 12:55 NW 9 10.00 Fair CLR 73.4 33.6 73.4 46.4 23% 29.91 0.0
03 12:35 N 7 10.00 Fair CLR 72.5 31.6 22% 29.91 0.0
03 12:15 NE 13 G 17 10.00 Fair CLR 72.1 33.1 24% 29.92 0.0
03 11:55 NE 12 G 18 10.00 Fair CLR 71.6 34.2 25% 29.92 0.0
03 11:35 N 9 G 16 10.00 Fair CLR 69.8 35.8 29% 29.92 0.0
03 11:15 N 13 10.00 Fair CLR 69.6 35.2 28% 29.93 0.0
03 10:55 N 14 G 17 10.00 Fair CLR 68 36.9 32% 29.93 0.0
03 10:35 N 7 10.00 Fair CLR 66.7 36.9 33% 29.93 0.0
03 10:15 NW 12 10.00 Fair CLR 64.9 36.3 35% 29.94 0.0
03 09:55 N 12 10.00 Fair CLR 64.2 35.8 35% 29.94 0.0
03 09:35 N 12 10.00 Fair CLR 63.1 35.6 36% 29.93 0.0
03 09:15 NW 10 10.00 Fair CLR 62.6 34.9 36% 29.93 0.0
03 08:55 NW 8 10.00 Fair CLR 61.3 35.4 38% 29.92 0.0
03 08:35 NW 7 10.00 Fair CLR 59.9 36.7 42% 29.92 0.0
03 08:15 W 7 10.00 Fair CLR 57 37 47% 29.91 0.0
03 07:55 W 6 10.00 Fair CLR 53.1 36.9 54% 29.9 0.0
03 07:35 SW 6 10.00 Fair CLR 50.4 36.7 60% 29.9 0.0
03 07:15 W 6 10.00 Fair CLR 47.7 35.2 62% 45 29.89 0.0
03 06:55 W 8 10.00 Fair CLR 46.2 34.2 54.5 43.7 63% 43 29.89 0.0
03 06:35 SW 9 10.00 Fair CLR 45.5 34.2 65% 41 29.88 0.0
03 06:15 SW 8 10.00 Fair CLR 44.8 32.5 62% 41 29.88 0.0
03 05:55 SW 10 10.00 Fair CLR 47.8 34.3 60% 44 29.86 0.0
03 05:35 SW 9 10.00 Fair CLR 47.8 33.4 58% 44 29.87 0.0
03 05:15 W 6 10.00 Fair CLR 48.9 33.1 55% 47 29.89 0.0
03 04:55 W 10 G 22 10.00 Fair CLR 52.9 33.1 47% 29.9 0.0
03 04:35 SW 14 10.00 Fair CLR 51.8 31.1 45% 29.86 0.0
03 04:15 SW 15 10.00 Fair CLR 51.8 30.6 44% 29.86 0.0
03 03:55 SW 15 10.00 Fair CLR 52 30.2 43% 29.86 0.0
03 03:35 SW 16 10.00 Fair CLR 51.6 30.2 44% 29.86 0.0
03 03:15 SW 15 10.00 Fair CLR 51.8 30.4 44% 29.87 0.0
03 02:55 SW 15 10.00 Fair CLR 52.7 30.4 43% 29.88 0.0
03 02:35 SW 15 G 21 10.00 Fair CLR 52.2 30.6 44% 29.89 0.0
03 02:15 SW 15 10.00 Fair CLR 53.1 29.8 41% 29.89 0.0
03 01:55 SW 16 10.00 Fair CLR 52.9 29.8 41% 29.9 0.0
03 01:35 SW 17 10.00 Fair CLR 54 29.3 39% 29.9 0.0
Date Time (cdt) Wind (mph) Vis. (mi.) Weather Sky Cond. Air Dwpt Max. Min. Relative Humidity Wind Chill (°F) Heat Index (°F) altimeter (in) sea level (mb) 1 hr 3 hr 6 hr
6 hour
Temperature (ºF) Pressure Precipitation (in)